Darstellungsparameter: Aktuell verwendete Einstellungen:
Skalierung der Graphiken ... ?
xyx+y,   Skalierungsfaktor:      Skalierung: Modus: x, Faktor: 1
Darstellungszeitraum ... ?
Vom - - bis: - -   Zeitraum: 18.08.2007 - 17.11.2007
Min/Max/Avg-Anzeige ... ?
Zeige MMA aktuell
Zeige MMA Monat
Zeige MMA alles
Zeige --A aktuell
Zeige --A Monat
Zeige --A alles
Keine MMA-Anzeige
MMA:
Average (ber die Originaldaten)
MMA-Basis: 17.04.2019 - 19.05.2019
Quicknavigation für Darstellung... ?
Tage:      1T, 2T, 3T, 5T -1T -2T -3T -5T +1T +2T +3T +5T
Wochen: 1W, 2W, 3W -1W -2W -3W +1W +2W +3W
Monate: 1M, 3M, 6M -1M -3M -6M +1M +3M +6M
Jahre:    1J, 3J, 5J, 10J -1J -3J -5J -10J +1J +3J +5J +10J
Nutze für die Darstellung ... ?
Originaldaten oder ...
Mittelwerte Minima Maxima auf...
Stundenbasis Tagesbasis Wochenbasis
Monatsbasis Jahresbasis      Datenbasis: Mittelwerte auf Tagesbasis
Darstellen als:
Statistik (Auto) Statistik J:M      Darstellung:
Zur Graphik,    zurück zur Übersicht aller Sensoren.
 
Tabellarische Datenbersicht: ?
 
Sensor: Nr:Datum:Temp:Abs-Feuchte:Windchill:Wind:
Aussen-T/F 1 18-08-2007 00:00:00 17.40917 C 8.03 g/m*3 17.41 C 0 km/h
2 19-08-2007 00:00:00 17.24583 C 9.91 g/m*3 17.25 C 0 km/h
3 20-08-2007 00:00:00 17.315 C 9.7 g/m*3 17.32 C 0 km/h
4 21-08-2007 00:00:00 15.4225 C 10.31 g/m*3 15.42 C 0 km/h
5 22-08-2007 00:00:00 15.95593 C 11.84 g/m*3 15.96 C 0 km/h
6 23-08-2007 00:00:00 17.7575 C 11.98 g/m*3 17.76 C 0 km/h
7 24-08-2007 00:00:00 19.43833 C 11.56 g/m*3 19.44 C 0 km/h
8 25-08-2007 00:00:00 21.42 C 11.91 g/m*3 21.42 C 0 km/h
9 26-08-2007 00:00:00 21.99167 C 12.1 g/m*3 21.99 C 0 km/h
10 27-08-2007 00:00:00 19.53583 C 8.84 g/m*3 19.54 C 0 km/h
11 28-08-2007 00:00:00 16.42167 C 8.1 g/m*3 16.42 C 0 km/h
12 29-08-2007 00:00:00 17.285 C 6.71 g/m*3 17.29 C 0 km/h
13 30-08-2007 00:00:00 15.3675 C 7.01 g/m*3 15.37 C 0 km/h
14 31-08-2007 00:00:00 17.5825 C 9.89 g/m*3 17.58 C 0 km/h
15 01-09-2007 00:00:00 17.1975 C 10.01 g/m*3 17.2 C 0 km/h
16 02-09-2007 00:00:00 17.35583 C 9 g/m*3 17.36 C 0 km/h
17 03-09-2007 00:00:00 15.74917 C 9.08 g/m*3 15.75 C 0 km/h
18 04-09-2007 00:00:00 12.88417 C 7.04 g/m*3 12.88 C 0 km/h
19 05-09-2007 00:00:00 12.6395 C 6.92 g/m*3 12.64 C 0 km/h
20 06-09-2007 00:00:00 15.00917 C 9.43 g/m*3 15.01 C 0 km/h
21 07-09-2007 00:00:00 15.9325 C 9.22 g/m*3 15.93 C 0 km/h
22 08-09-2007 00:00:00 15.13667 C 10.05 g/m*3 15.14 C 0 km/h
23 09-09-2007 00:00:00 15.125 C 9.17 g/m*3 15.13 C 0 km/h
24 10-09-2007 00:00:00 12.4075 C 8.68 g/m*3 12.41 C 0 km/h
25 11-09-2007 00:00:00 14.36833 C 8.61 g/m*3 14.37 C 0 km/h
Sensor: Nr:Datum:Temp:Abs-Feuchte:Windchill:Wind:
Aussen-T/F 26 12-09-2007 00:00:00 14.94417 C 8.54 g/m*3 14.94 C 0 km/h
27 13-09-2007 00:00:00 14.5175 C 8.49 g/m*3 14.52 C 0 km/h
28 14-09-2007 00:00:00 15.68417 C 8.62 g/m*3 15.68 C 0 km/h
29 15-09-2007 00:00:00 16.86917 C 8.24 g/m*3 16.87 C 0 km/h
30 16-09-2007 00:00:00 15.27 C 8.22 g/m*3 15.27 C 0 km/h
31 17-09-2007 00:00:00 16.68833 C 10.1 g/m*3 16.69 C 0 km/h
32 18-09-2007 00:00:00 11.46833 C 8.27 g/m*3 11.47 C 0 km/h
33 19-09-2007 00:00:00 10.3275 C 6.41 g/m*3 10.33 C 0 km/h
34 20-09-2007 00:00:00 13.68083 C 7.03 g/m*3 13.68 C 0 km/h
35 21-09-2007 00:00:00 14.35833 C 7.71 g/m*3 14.36 C 0 km/h
36 22-09-2007 00:00:00 15.97583 C 8.74 g/m*3 15.98 C 0 km/h
37 23-09-2007 00:00:00 17.80333 C 9.5 g/m*3 17.8 C 0 km/h
38 24-09-2007 00:00:00 16.95833 C 9.49 g/m*3 16.96 C 0 km/h
39 25-09-2007 00:00:00 12.91917 C 7.71 g/m*3 12.92 C 0 km/h
40 26-09-2007 00:00:00 12.2675 C 7.86 g/m*3 12.27 C 0 km/h
41 27-09-2007 00:00:00 10.19083 C 8.85 g/m*3 10.19 C 0 km/h
42 28-09-2007 00:00:00 12.50168 C 8.71 g/m*3 12.5 C 0 km/h
43 29-09-2007 00:00:00 13.54444 C 8.6 g/m*3 13.54 C 0 km/h
44 30-09-2007 00:00:00 14.59687 C 9.12 g/m*3 14.6 C 0 km/h
45 01-10-2007 00:00:00 14.70313 C 9.71 g/m*3 14.7 C 0 km/h
46 02-10-2007 00:00:00 17.235 C 11.49 g/m*3 17.24 C 0 km/h
47 03-10-2007 00:00:00 17.39188 C 11.47 g/m*3 17.39 C 0 km/h
48 04-10-2007 00:00:00 17.33653 C 11.53 g/m*3 17.34 C 0 km/h
49 05-10-2007 00:00:00 15.50646 C 8.72 g/m*3 15.51 C 0 km/h
50 06-10-2007 00:00:00 12.34042 C 7.59 g/m*3 12.34 C 0 km/h
Sensor: Nr:Datum:Temp:Abs-Feuchte:Windchill:Wind:
Aussen-T/F 51 07-10-2007 00:00:00 11.60813 C 7.69 g/m*3 11.61 C 0 km/h
52 08-10-2007 00:00:00 10.74021 C 7.53 g/m*3 10.74 C 0 km/h
53 09-10-2007 00:00:00 12.05052 C 8.1 g/m*3 12.05 C 0 km/h
54 10-10-2007 00:00:00 14.53875 C 8.04 g/m*3 14.54 C 0 km/h
55 11-10-2007 00:00:00 11.52958 C 7.34 g/m*3 11.53 C 0 km/h
56 12-10-2007 00:00:00 12.23271 C 8.24 g/m*3 12.23 C 0 km/h
57 13-10-2007 00:00:00 13.96146 C 7.82 g/m*3 13.96 C 0 km/h
58 14-10-2007 00:00:00 9.94958 C 6.47 g/m*3 9.95 C 0 km/h
59 15-10-2007 00:00:00 10.725 C 7.35 g/m*3 10.73 C 0 km/h
60 16-10-2007 00:00:00 13.70417 C 8.35 g/m*3 13.7 C 0 km/h
61 17-10-2007 00:00:00 11.78601 C 8.39 g/m*3 11.79 C 0 km/h
62 18-10-2007 00:00:00 9.70042 C 6.45 g/m*3 9.7 C 0 km/h
63 19-10-2007 00:00:00 7.65667 C 6.17 g/m*3 7.66 C 0 km/h
64 20-10-2007 00:00:00 3.38583 C 5.54 g/m*3 3.39 C 0 km/h
65 24-10-2007 00:00:00 7.63803 C 5.69 g/m*3 7.64 C 0 km/h
66 25-10-2007 00:00:00 8.51042 C 6.26 g/m*3 8.51 C 0 km/h
67 26-10-2007 00:00:00 8.8712 C 6.03 g/m*3 8.87 C 0 km/h
68 27-10-2007 00:00:00 8.5725 C 5.85 g/m*3 8.57 C 0 km/h
69 28-10-2007 00:00:00 9.1632 C 5.9 g/m*3 9.16 C 0 km/h
70 29-10-2007 00:00:00 8.77833 C 7.07 g/m*3 8.78 C 0 km/h
71 30-10-2007 00:00:00 8.70333 C 7.3 g/m*3 8.7 C 0 km/h
72 31-10-2007 00:00:00 6.43333 C 6.44 g/m*3 6.43 C 0 km/h
73 01-11-2007 00:00:00 5.77833 C 6.04 g/m*3 5.78 C 0 km/h
74 02-11-2007 00:00:00 10.20333 C 8.52 g/m*3 10.2 C 0 km/h
75 03-11-2007 00:00:00 11.76723 C 9.64 g/m*3 11.77 C 0 km/h
Sensor: Nr:Datum:Temp:Abs-Feuchte:Windchill:Wind:
Aussen-T/F 76 04-11-2007 00:00:00 10.35 C 6.84 g/m*3 10.35 C 0 km/h
77 05-11-2007 00:00:00 8.61333 C 5.38 g/m*3 8.61 C 0 km/h
78 06-11-2007 00:00:00 8.1225 C 5.88 g/m*3 8.12 C 0 km/h
79 07-11-2007 00:00:00 8.495 C 6.13 g/m*3 8.49 C 0 km/h
80 08-11-2007 00:00:00 9.85667 C 7.21 g/m*3 9.86 C 0 km/h
81 09-11-2007 00:00:00 5.16167 C 5.11 g/m*3 5.16 C 0 km/h
82 10-11-2007 00:00:00 6.29083 C 5.92 g/m*3 6.29 C 0 km/h
83 11-11-2007 00:00:00 7.75917 C 6.67 g/m*3 7.76 C 0 km/h
84 12-11-2007 00:00:00 5.1475 C 4.79 g/m*3 5.15 C 0 km/h
85 13-11-2007 00:00:00 3.98167 C 5.14 g/m*3 3.98 C 0 km/h
86 14-11-2007 00:00:00 2.72417 C 4.37 g/m*3 2.72 C 0 km/h
87 15-11-2007 00:00:00 1.3425 C 3.82 g/m*3 1.34 C 0 km/h
88 16-11-2007 00:00:00 -0.59167 C 3.84 g/m*3 -0.59 C 0 km/h
89 17-11-2007 00:00:00 3.35714 C 4.68 g/m*3 3.36 C 0 km/h

Maximal/Minimal-Werte vom 17.04.2019 - 19.05.2019

Sensor Min Max Avg
Temp
(Aussen-T/F)
2.2 °C
13-05-2019  06:50:00
26.6 °C
24-04-2019  17:05:00
11.51 °C

Die Daten stammen von einer Davis Vantage Pro 2 Wetter-Station und werden unter Linux mit der Software wview2wettercgi und aufbereitet. Alle Angaben erfolgen ohne Gewähr für ihre Vollständigkeit oder Richtigkeit.
Kontakt: Rainer Krienke krienke@uni-koblenz.de . Meine Webseiten an der Uni Koblenz oder privat.
Version: $Revision: 0.78 $